USCGC Eagle — NRCB — position and weather

sailwx.info

Track history (hours):
 
Tides and Currents Weather Stations Pressure Air Temp Water Temp Dewpoint Dewpoint Depression Visibility Wind Speed Wind Dir Waves Ship Positions

USCGC Eagle (United States)

Training ship of US Coast Guard Academy, and only square-rigger in active service in the US armed services. Ex German ship Horst Wessel.

Ship's website: http://www.cga.edu/eagle/

Last reported at 2015-Jul-02 00:00 UTC. Time now 2015-Jul-05 20:57 UTC.
Position N 34°54' W 068°50'.

CRS 115T DEG, SPD 8.0 KTS

Date/timePositionNaut miles runAvg speedWind from/ knotsBaromVisibWave heightAir tempDewpointWater temp
2015-Jul-02 00:00N 34°54' W 068°50'351 8.8
2015-Jun-30 08:00N 39°08' W 073°52'57 5.7
2015-Jun-29 22:05N 38°46' W 074°59'4 7.4
2015-Jun-29 21:33N 38°48' W 075°03'4 3.5
2015-Jun-29 20:33N 38°51' W 075°04'60 7.5
2015-Jun-29 12:33N 39°50' W 075°22'8 8.0
2015-Jun-29 11:33N 39°53' W 075°12'5 5.3
2015-Jun-29 10:33N 39°57' W 075°08'0 0.2
2015-Jun-29 09:32N 39°57' W 075°08'0 0.0
2015-Jun-29 08:32N 39°57' W 075°08'0 0.0
2015-Jun-29 07:32N 39°57' W 075°08'0 0.0
2015-Jun-29 06:33N 39°57' W 075°08'0 0.0
2015-Jun-29 05:33N 39°57' W 075°08'0 0.0
2015-Jun-29 04:33N 39°57' W 075°08'0 0.0
2015-Jun-29 03:33N 39°57' W 075°08'0 0.0
2015-Jun-29 02:33N 39°57' W 075°08'0 0.0
2015-Jun-29 01:29N 39°57' W 075°08'0 0.0
2015-Jun-29 00:32N 39°57' W 075°08'0 0.0
2015-Jun-28 23:32N 39°57' W 075°08'  
2015-Jun-25 21:32N 39°57' W 075°08'0 0.0
2015-Jun-25 20:31N 39°57' W 075°08'2 1.8
2015-Jun-25 19:34N 39°55' W 075°08'6 6.1
2015-Jun-25 18:34N 39°51' W 075°14'6 6.2
2015-Jun-25 17:34N 39°50' W 075°22'63 2.3
2015-Jun-24 14:33N 38°48' W 075°03'95 5.1
2015-Jun-23 20:00N 38°12' W 073°11'15 1.2
2015-Jun-23 08:00N 38°07' W 072°53'  
Track history (hours):
 
Tides and Currents Weather Stations Pressure Air Temp Water Temp Dewpoint Dewpoint Depression Visibility Wind Speed Wind Dir Waves Ship Positions

USCGC Eagle (United States)

Training ship of US Coast Guard Academy, and only square-rigger in active service in the US armed services. Ex German ship Horst Wessel.

Ship's website: http://www.cga.edu/eagle/

Last reported at 2015-Jul-02 00:00 UTC. Time now 2015-Jul-05 20:57 UTC.
Position N 34°54' W 068°50'.

CRS 115T DEG, SPD 8.0 KTS

Date/timePositionNaut miles runAvg speedWind from/ knotsBaromVisibWave heightAir tempDewpointWater temp
2015-Jul-02 00:00N 34°54' W 068°50'351 8.8
2015-Jun-30 08:00N 39°08' W 073°52'57 5.7
2015-Jun-29 22:05N 38°46' W 074°59'4 7.4
2015-Jun-29 21:33N 38°48' W 075°03'4 3.5
2015-Jun-29 20:33N 38°51' W 075°04'60 7.5
2015-Jun-29 12:33N 39°50' W 075°22'8 8.0
2015-Jun-29 11:33N 39°53' W 075°12'5 5.3
2015-Jun-29 10:33N 39°57' W 075°08'0 0.2
2015-Jun-29 09:32N 39°57' W 075°08'0 0.0
2015-Jun-29 08:32N 39°57' W 075°08'0 0.0
2015-Jun-29 07:32N 39°57' W 075°08'0 0.0
2015-Jun-29 06:33N 39°57' W 075°08'0 0.0
2015-Jun-29 05:33N 39°57' W 075°08'0 0.0
2015-Jun-29 04:33N 39°57' W 075°08'0 0.0
2015-Jun-29 03:33N 39°57' W 075°08'0 0.0
2015-Jun-29 02:33N 39°57' W 075°08'0 0.0
2015-Jun-29 01:29N 39°57' W 075°08'0 0.0
2015-Jun-29 00:32N 39°57' W 075°08'0 0.0
2015-Jun-28 23:32N 39°57' W 075°08'  
2015-Jun-25 21:32N 39°57' W 075°08'0 0.0
2015-Jun-25 20:31N 39°57' W 075°08'2 1.8
2015-Jun-25 19:34N 39°55' W 075°08'6 6.1
2015-Jun-25 18:34N 39°51' W 075°14'6 6.2
2015-Jun-25 17:34N 39°50' W 075°22'63 2.3
2015-Jun-24 14:33N 38°48' W 075°03'95 5.1
2015-Jun-23 20:00N 38°12' W 073°11'15 1.2
2015-Jun-23 08:00N 38°07' W 072°53'  

Dump ship's entire track history